Time;durP1;ratioP1;P1;durP2;ratioP2;P2;SDS_P1;SDS_P2;PMS_P1;PMS_P2;Temp;Humidity;BMP_temperature;BMP_pressure;BME280_temperature;BME280_humidity;BME280_pressure;Samples;Min_cycle;Max_cycle;Signal;HPM_P1;HPM_P2
2022/01/20 00:00:32;;;;;;;;;;;5.90;99.90;;;;;;5010903;28;20370;-69
2022/01/20 00:03:00;;;;;;;;;;;5.90;99.90;;;;;;5011434;28;19967;-72
2022/01/20 00:05:37;;;;;;;;;;;6.00;99.90;;;;;;5032969;28;19916;-71
2022/01/20 00:26:55;;;;;;;;;;;5.90;99.90;;;;;;5033546;28;19987;-69
2022/01/20 00:29:27;;;;;;;;;;;5.90;99.90;;;;;;5027918;28;19925;-71
2022/01/20 00:32:11;;;;;;;;;;;5.90;99.90;;;;;;5028763;28;19917;-72
2022/01/20 00:37:29;;;;;;;;;;;5.90;99.90;;;;;;5008824;28;20210;-71
2022/01/20 00:39:55;;;;;;;;;;;5.90;99.90;;;;;;5012477;28;19940;-70
2022/01/20 00:42:21;;;;;;;;;;;5.80;99.90;;;;;;5038709;28;19984;-70
2022/01/20 00:44:46;;;;;;;;;;;5.80;99.90;;;;;;5014492;28;19990;-69
2022/01/20 00:47:12;;;;;;;;;;;5.80;99.90;;;;;;5028264;28;19913;-71
2022/01/20 00:49:40;;;;;;;;;;;5.90;99.90;;;;;;5011077;28;20409;-71
2022/01/20 00:52:06;;;;;;;;;;;5.90;99.90;;;;;;5027431;28;20070;-71
2022/01/20 00:54:31;;;;;;;;;;;6.00;99.90;;;;;;5025098;28;20494;-71
2022/01/20 00:56:57;;;;;;;;;;;5.90;99.90;;;;;;5006370;28;19928;-72
2022/01/20 00:59:22;;;;;;;;;;;6.00;99.90;;;;;;4990485;28;20279;-72
2022/01/20 01:01:48;;;;;;;;;;;6.00;99.90;;;;;;5025940;28;19924;-70
2022/01/20 01:04:14;;;;;;;;;;;6.00;99.90;;;;;;5020919;28;19913;-70
2022/01/20 01:09:11;;;;;;;;;;;6.00;99.90;;;;;;5024171;28;19924;-72
2022/01/20 01:11:37;;;;;;;;;;;6.00;99.90;;;;;;5023945;28;19917;-71
2022/01/20 01:14:05;;;;;;;;;;;6.00;99.90;;;;;;4993453;28;19913;-73
2022/01/20 01:22:13;;;;;;;;;;;6.00;99.90;;;;;;5037135;28;20448;-71
2022/01/20 01:24:38;;;;;;;;;;;6.00;99.90;;;;;;5028653;28;19924;-68
2022/01/20 01:27:04;;;;;;;;;;;6.00;99.90;;;;;;5025840;28;19936;-71
2022/01/20 01:29:59;;;;;;;;;;;6.00;99.90;;;;;;5025713;28;20370;-71
2022/01/20 01:32:29;;;;;;;;;;;6.00;99.90;;;;;;5023639;28;19917;-69
2022/01/20 01:34:55;;;;;;;;;;;6.00;99.90;;;;;;5026731;28;19959;-70
2022/01/20 01:37:37;;;;;;;;;;;5.90;99.90;;;;;;5008391;28;19917;-70
2022/01/20 01:40:07;;;;;;;;;;;6.00;99.90;;;;;;5010119;28;19913;-72
2022/01/20 01:42:53;;;;;;;;;;;6.00;99.90;;;;;;5028336;28;20432;-72
2022/01/20 01:45:20;;;;;;;;;;;6.00;99.90;;;;;;5026468;28;19932;-70
2022/01/20 01:47:46;;;;;;;;;;;6.10;99.90;;;;;;5008830;28;19936;-71
2022/01/20 01:50:12;;;;;;;;;;;6.10;99.90;;;;;;5027636;28;19917;-70
2022/01/20 01:52:37;;;;;;;;;;;6.10;99.90;;;;;;5013856;28;19983;-71
2022/01/20 01:55:03;;;;;;;;;;;6.00;99.90;;;;;;5018522;28;20231;-74
2022/01/20 01:57:29;;;;;;;;;;;6.00;99.90;;;;;;5029090;28;20330;-74
2022/01/20 01:59:55;;;;;;;;;;;6.00;99.90;;;;;;5027708;28;19928;-71
2022/01/20 02:02:20;;;;;;;;;;;6.10;99.90;;;;;;5013940;28;19923;-69
2022/01/20 02:04:46;;;;;;;;;;;6.10;99.90;;;;;;5029695;28;19909;-73
2022/01/20 02:20:52;;;;;;;;;;;6.10;99.90;;;;;;5024685;28;19920;-73
2022/01/20 02:23:18;;;;;;;;;;;6.00;99.90;;;;;;5008889;28;20490;-73
2022/01/20 02:25:43;;;;;;;;;;;6.00;99.90;;;;;;5026282;28;19975;-70
2022/01/20 02:28:10;;;;;;;;;;;6.00;99.90;;;;;;5025592;28;19921;-71
2022/01/20 02:30:37;;;;;;;;;;;6.00;99.90;;;;;;5016576;28;19928;-71
2022/01/20 02:33:09;;;;;;;;;;;6.00;99.90;;;;;;5021202;28;19914;-76
2022/01/20 02:35:40;;;;;;;;;;;5.90;99.90;;;;;;5018106;28;20433;-71
2022/01/20 02:38:12;;;;;;;;;;;6.00;99.90;;;;;;5016999;28;19924;-72
2022/01/20 02:45:50;;;;;;;;;;;5.80;99.90;;;;;;5021748;28;19923;-72
2022/01/20 02:48:15;;;;;;;;;;;5.90;99.90;;;;;;5016016;28;19914;-72
2022/01/20 02:50:41;;;;;;;;;;;5.80;99.90;;;;;;5018902;28;20535;-71
2022/01/20 02:53:06;;;;;;;;;;;5.90;99.90;;;;;;5018225;28;19995;-69
2022/01/20 02:55:32;;;;;;;;;;;5.90;99.90;;;;;;5018973;28;19910;-70
2022/01/20 02:57:57;;;;;;;;;;;5.90;99.90;;;;;;5001571;28;20382;-72
2022/01/20 03:00:23;;;;;;;;;;;5.90;99.90;;;;;;5013385;28;19910;-73
2022/01/20 03:02:49;;;;;;;;;;;5.90;99.90;;;;;;5021010;28;20217;-71
2022/01/20 03:05:15;;;;;;;;;;;5.90;99.90;;;;;;5018166;28;20036;-71
2022/01/20 03:07:40;;;;;;;;;;;5.90;99.90;;;;;;5032744;28;19917;-71
2022/01/20 03:10:06;;;;;;;;;;;5.90;99.90;;;;;;5007758;28;19920;-71
2022/01/20 03:12:32;;;;;;;;;;;5.90;99.90;;;;;;5015125;28;20371;-70
2022/01/20 03:14:58;;;;;;;;;;;5.90;99.90;;;;;;5008129;28;19913;-71
2022/01/20 03:17:23;;;;;;;;;;;6.00;99.90;;;;;;5009585;28;19925;-71
2022/01/20 03:19:49;;;;;;;;;;;6.00;99.90;;;;;;5009026;28;19944;-72
2022/01/20 03:22:14;;;;;;;;;;;6.00;99.90;;;;;;5008175;28;19913;-71
2022/01/20 03:24:40;;;;;;;;;;;5.90;99.90;;;;;;5024414;28;19909;-76
2022/01/20 03:27:05;;;;;;;;;;;5.90;99.90;;;;;;5025272;28;20082;-70
2022/01/20 03:29:31;;;;;;;;;;;5.80;99.90;;;;;;5023925;28;19913;-71
2022/01/20 03:31:56;;;;;;;;;;;5.80;99.90;;;;;;5023689;28;19928;-70
2022/01/20 03:34:24;;;;;;;;;;;5.70;99.90;;;;;;5024607;28;20294;-71
2022/01/20 03:36:49;;;;;;;;;;;5.70;99.90;;;;;;5006350;28;20253;-70
2022/01/20 03:39:15;;;;;;;;;;;5.70;99.90;;;;;;5024548;28;20027;-70
2022/01/20 03:41:41;;;;;;;;;;;5.60;99.90;;;;;;5025166;28;20384;-70
2022/01/20 03:44:07;;;;;;;;;;;5.60;99.90;;;;;;5024437;28;19943;-72
2022/01/20 03:46:32;;;;;;;;;;;5.50;99.90;;;;;;5025900;28;20404;-72
2022/01/20 03:49:08;;;;;;;;;;;5.50;99.90;;;;;;5024453;28;20103;-72
2022/01/20 03:51:33;;;;;;;;;;;5.60;99.90;;;;;;5025756;28;20359;-69
2022/01/20 03:53:59;;;;;;;;;;;5.70;99.90;;;;;;5024602;28;19931;-72
2022/01/20 03:56:24;;;;;;;;;;;5.80;99.90;;;;;;5024459;28;19913;-73
2022/01/20 03:58:50;;;;;;;;;;;5.80;99.90;;;;;;5012051;28;20365;-73
2022/01/20 04:01:16;;;;;;;;;;;5.80;99.90;;;;;;5025381;28;19920;-71
2022/01/20 04:03:41;;;;;;;;;;;5.90;99.90;;;;;;5009956;28;19920;-73
2022/01/20 04:06:07;;;;;;;;;;;5.90;99.90;;;;;;5024246;28;19921;-69
2022/01/20 04:08:36;;;;;;;;;;;5.90;99.90;;;;;;5024206;28;19913;-74
2022/01/20 04:11:04;;;;;;;;;;;5.90;99.90;;;;;;5006964;28;19913;-70
2022/01/20 04:13:31;;;;;;;;;;;5.90;99.90;;;;;;5024553;28;19909;-69
2022/01/20 04:16:01;;;;;;;;;;;5.90;99.90;;;;;;5025259;28;19932;-71
2022/01/20 04:18:27;;;;;;;;;;;5.70;99.90;;;;;;5024910;28;20192;-70
2022/01/20 04:20:53;;;;;;;;;;;5.60;99.90;;;;;;5027781;28;19919;-71
2022/01/20 04:23:19;;;;;;;;;;;5.50;99.90;;;;;;5029055;28;19996;-71
2022/01/20 04:25:44;;;;;;;;;;;5.40;99.90;;;;;;5009257;28;19913;-71
2022/01/20 04:28:10;;;;;;;;;;;5.40;99.90;;;;;;5026682;28;19909;-71
2022/01/20 04:30:35;;;;;;;;;;;5.30;99.90;;;;;;5034970;28;19905;-70
2022/01/20 04:33:01;;;;;;;;;;;5.20;99.90;;;;;;5032941;28;19918;-69
2022/01/20 04:35:26;;;;;;;;;;;5.10;99.90;;;;;;5014044;28;19984;-69
2022/01/20 04:37:54;;;;;;;;;;;4.90;99.90;;;;;;5032225;28;19913;-70
2022/01/20 04:40:20;;;;;;;;;;;4.80;99.90;;;;;;5013301;28;19924;-69
2022/01/20 04:42:48;;;;;;;;;;;4.80;99.90;;;;;;5009863;28;19909;-70
2022/01/20 04:45:19;;;;;;;;;;;4.80;99.90;;;;;;5009232;28;19936;-70
2022/01/20 04:48:12;;;;;;;;;;;4.70;99.90;;;;;;5026688;28;20577;-70
2022/01/20 04:58:50;;;;;;;;;;;4.60;99.90;;;;;;5024568;28;19924;-70
2022/01/20 05:01:16;;;;;;;;;;;4.60;99.90;;;;;;5008709;28;19995;-70
2022/01/20 05:03:43;;;;;;;;;;;4.60;99.90;;;;;;5008531;28;20479;-72
2022/01/20 05:06:09;;;;;;;;;;;4.60;99.90;;;;;;5027466;28;20273;-75
2022/01/20 05:08:35;;;;;;;;;;;4.60;99.90;;;;;;5027986;28;19975;-71
2022/01/20 05:11:02;;;;;;;;;;;4.60;99.90;;;;;;5029049;28;20015;-72
2022/01/20 05:13:33;;;;;;;;;;;4.60;99.90;;;;;;5009458;28;19913;-70
2022/01/20 05:15:59;;;;;;;;;;;4.60;99.90;;;;;;5022871;28;19940;-70
2022/01/20 05:18:25;;;;;;;;;;;4.60;99.90;;;;;;5030217;28;19917;-71
2022/01/20 05:20:51;;;;;;;;;;;4.70;99.90;;;;;;5016743;28;19968;-70
2022/01/20 05:23:17;;;;;;;;;;;4.60;99.90;;;;;;5027545;28;19913;-71
2022/01/20 05:25:43;;;;;;;;;;;4.60;99.90;;;;;;5012750;28;20099;-71
2022/01/20 05:28:08;;;;;;;;;;;4.50;99.90;;;;;;5036278;28;20003;-70
2022/01/20 05:30:34;;;;;;;;;;;4.50;99.90;;;;;;5035008;28;19984;-71
2022/01/20 05:33:00;;;;;;;;;;;4.40;99.90;;;;;;5033745;28;19921;-71
2022/01/20 05:35:26;;;;;;;;;;;4.40;99.90;;;;;;5014990;28;19913;-72
2022/01/20 05:37:52;;;;;;;;;;;4.40;99.90;;;;;;5031915;28;20248;-72
2022/01/20 05:40:17;;;;;;;;;;;4.40;99.90;;;;;;5030092;28;19917;-71
2022/01/20 05:42:43;;;;;;;;;;;4.40;99.90;;;;;;5024779;28;19934;-71
2022/01/20 05:45:08;;;;;;;;;;;4.40;99.90;;;;;;5024803;28;19917;-71
2022/01/20 05:47:37;;;;;;;;;;;4.40;99.90;;;;;;5024703;28;20425;-71
2022/01/20 05:50:03;;;;;;;;;;;4.40;99.90;;;;;;5022788;28;20349;-72
2022/01/20 05:52:29;;;;;;;;;;;4.40;99.90;;;;;;5022584;28;20449;-71
2022/01/20 05:54:54;;;;;;;;;;;4.40;99.90;;;;;;5026169;28;19913;-71
2022/01/20 05:57:20;;;;;;;;;;;4.40;99.90;;;;;;5008134;28;20107;-72
2022/01/20 05:59:45;;;;;;;;;;;4.40;99.90;;;;;;5027526;28;20386;-70
2022/01/20 06:02:28;;;;;;;;;;;4.40;99.90;;;;;;5019912;28;19996;-73
2022/01/20 06:04:54;;;;;;;;;;;4.40;99.90;;;;;;5008465;28;19920;-71
2022/01/20 06:07:20;;;;;;;;;;;4.40;99.90;;;;;;5025288;28;19913;-71
2022/01/20 06:09:45;;;;;;;;;;;4.40;99.90;;;;;;5012537;28;20221;-74
2022/01/20 06:12:11;;;;;;;;;;;4.40;99.90;;;;;;5025617;28;20409;-71
2022/01/20 06:14:36;;;;;;;;;;;4.40;99.90;;;;;;5020047;28;19921;-73
2022/01/20 06:17:02;;;;;;;;;;;4.40;99.90;;;;;;5024599;28;20634;-71
2022/01/20 06:19:27;;;;;;;;;;;4.40;99.90;;;;;;5026262;28;19917;-71
2022/01/20 06:21:53;;;;;;;;;;;4.50;99.90;;;;;;5019549;28;19963;-73
2022/01/20 06:24:18;;;;;;;;;;;4.50;99.90;;;;;;5023220;28;20458;-71
2022/01/20 06:26:44;;;;;;;;;;;4.60;99.90;;;;;;5000008;28;19913;-74
2022/01/20 06:29:09;;;;;;;;;;;4.60;99.90;;;;;;5017995;28;20330;-73
2022/01/20 06:31:35;;;;;;;;;;;4.60;99.90;;;;;;5022958;28;19917;-76
2022/01/20 06:34:00;;;;;;;;;;;4.60;99.90;;;;;;5023171;28;20027;-69
2022/01/20 06:36:26;;;;;;;;;;;4.70;99.90;;;;;;5023616;28;19917;-69
2022/01/20 06:38:52;;;;;;;;;;;4.70;99.90;;;;;;5010961;28;20445;-73
2022/01/20 06:41:17;;;;;;;;;;;4.80;99.90;;;;;;5021129;28;19920;-73
2022/01/20 06:43:43;;;;;;;;;;;4.90;99.90;;;;;;5027067;28;19952;-70
2022/01/20 06:46:08;;;;;;;;;;;4.80;99.90;;;;;;5013546;28;20470;-69
2022/01/20 06:48:34;;;;;;;;;;;4.80;99.90;;;;;;5034732;28;19966;-71
2022/01/20 06:50:59;;;;;;;;;;;4.80;99.90;;;;;;5040629;28;20410;-73
2022/01/20 06:53:25;;;;;;;;;;;4.80;99.90;;;;;;5022916;28;19909;-71
2022/01/20 06:55:50;;;;;;;;;;;4.70;99.90;;;;;;5034870;28;20012;-72
2022/01/20 06:58:16;;;;;;;;;;;4.70;99.90;;;;;;5034304;28;19925;-70
2022/01/20 07:00:41;;;;;;;;;;;4.70;99.90;;;;;;5029662;28;19963;-70
2022/01/20 07:03:07;;;;;;;;;;;4.70;99.90;;;;;;5028319;28;19967;-71
2022/01/20 07:05:32;;;;;;;;;;;4.80;99.90;;;;;;5028982;28;19920;-68
2022/01/20 07:07:58;;;;;;;;;;;4.70;99.90;;;;;;5028974;28;20385;-72
2022/01/20 07:10:23;;;;;;;;;;;4.80;99.90;;;;;;5031630;28;20373;-73
2022/01/20 07:12:49;;;;;;;;;;;4.70;99.90;;;;;;5042416;28;19913;-73
2022/01/20 07:15:15;;;;;;;;;;;4.80;99.90;;;;;;5031751;28;20050;-71
2022/01/20 07:17:41;;;;;;;;;;;4.80;99.90;;;;;;5027757;28;19917;-70
2022/01/20 07:20:07;;;;;;;;;;;4.70;99.90;;;;;;5027843;28;19917;-70
2022/01/20 07:22:33;;;;;;;;;;;4.60;99.90;;;;;;5028011;28;19941;-70
2022/01/20 07:24:58;;;;;;;;;;;4.60;99.90;;;;;;5027262;28;19944;-71
2022/01/20 07:27:24;;;;;;;;;;;4.50;99.90;;;;;;5010109;28;19924;-71
2022/01/20 07:29:49;;;;;;;;;;;4.40;99.90;;;;;;5027939;28;20539;-70
2022/01/20 07:32:15;;;;;;;;;;;4.40;99.90;;;;;;5016276;28;19920;-70
2022/01/20 07:34:41;;;;;;;;;;;4.30;99.90;;;;;;5034158;28;19964;-71
2022/01/20 07:37:06;;;;;;;;;;;4.30;99.90;;;;;;5031908;28;19917;-73
2022/01/20 07:39:32;;;;;;;;;;;4.20;99.90;;;;;;5030941;28;20074;-73
2022/01/20 07:41:58;;;;;;;;;;;4.20;99.90;;;;;;5030249;28;19917;-72
2022/01/20 07:44:23;;;;;;;;;;;4.20;99.90;;;;;;5025764;28;19920;-71
2022/01/20 07:46:49;;;;;;;;;;;4.20;99.90;;;;;;5030198;28;19967;-73
2022/01/20 07:49:14;;;;;;;;;;;4.10;99.90;;;;;;5028896;28;20353;-72
2022/01/20 07:51:40;;;;;;;;;;;4.10;99.90;;;;;;5024628;28;19909;-71
2022/01/20 07:54:06;;;;;;;;;;;4.10;99.90;;;;;;5022266;28;20197;-70
2022/01/20 07:56:31;;;;;;;;;;;4.00;99.90;;;;;;5027381;28;19951;-71
2022/01/20 07:58:57;;;;;;;;;;;4.00;99.90;;;;;;5033449;28;19913;-69
2022/01/20 08:01:24;;;;;;;;;;;4.00;99.90;;;;;;5035906;28;20286;-70
2022/01/20 08:03:53;;;;;;;;;;;4.00;99.90;;;;;;5018247;28;19925;-70
2022/01/20 08:06:20;;;;;;;;;;;4.00;99.90;;;;;;5027639;28;19944;-72
2022/01/20 08:08:46;;;;;;;;;;;4.00;99.90;;;;;;5026729;28;19914;-71
2022/01/20 08:11:12;;;;;;;;;;;4.00;99.90;;;;;;5025746;28;19917;-71
2022/01/20 08:13:37;;;;;;;;;;;4.10;99.90;;;;;;5025840;28;20382;-72
2022/01/20 08:16:03;;;;;;;;;;;4.10;99.90;;;;;;4997362;28;20509;-72
2022/01/20 08:18:29;;;;;;;;;;;4.10;99.90;;;;;;5026915;28;19917;-71
2022/01/20 08:20:54;;;;;;;;;;;4.00;99.90;;;;;;5038281;28;19909;-73
2022/01/20 08:23:20;;;;;;;;;;;4.00;99.90;;;;;;5020526;28;20386;-73
2022/01/20 08:25:45;;;;;;;;;;;3.90;99.90;;;;;;5019692;28;20497;-75
2022/01/20 08:28:12;;;;;;;;;;;3.80;99.90;;;;;;5023852;28;19953;-72
2022/01/20 08:30:38;;;;;;;;;;;3.90;99.90;;;;;;5025135;28;20552;-71
2022/01/20 08:33:03;;;;;;;;;;;3.90;99.90;;;;;;5022541;28;19921;-68
2022/01/20 08:35:32;;;;;;;;;;;4.00;99.90;;;;;;5021309;28;19943;-72
2022/01/20 08:37:58;;;;;;;;;;;4.00;99.90;;;;;;5021837;28;19996;-71
2022/01/20 08:40:24;;;;;;;;;;;4.00;99.90;;;;;;5019515;28;19941;-70
2022/01/20 08:42:50;;;;;;;;;;;4.10;99.90;;;;;;5028396;28;20105;-70
2022/01/20 08:45:17;;;;;;;;;;;4.10;99.90;;;;;;5009091;28;19920;-71
2022/01/20 08:47:43;;;;;;;;;;;4.20;99.90;;;;;;5025929;28;19936;-71
2022/01/20 08:50:09;;;;;;;;;;;4.30;99.90;;;;;;5010130;28;19922;-71
2022/01/20 08:52:35;;;;;;;;;;;4.30;99.90;;;;;;5034802;28;19921;-70
2022/01/20 08:55:01;;;;;;;;;;;4.40;99.90;;;;;;5025756;28;19910;-70
2022/01/20 08:57:27;;;;;;;;;;;4.40;99.90;;;;;;5026117;28;19923;-71
2022/01/20 08:59:53;;;;;;;;;;;4.50;99.90;;;;;;5031932;28;20383;-70
2022/01/20 09:02:19;;;;;;;;;;;4.60;99.90;;;;;;5022062;28;19913;-69
2022/01/20 09:04:45;;;;;;;;;;;4.60;99.90;;;;;;5030619;28;20353;-70
2022/01/20 09:07:10;;;;;;;;;;;4.60;99.90;;;;;;5031187;28;19916;-72
2022/01/20 09:09:41;;;;;;;;;;;4.60;99.90;;;;;;5032197;28;19913;-71
2022/01/20 09:17:21;;;;;;;;;;;4.70;99.90;;;;;;5030994;28;19999;-71
2022/01/20 09:19:47;;;;;;;;;;;4.80;99.90;;;;;;5030302;28;19913;-72
2022/01/20 09:22:12;;;;;;;;;;;4.70;99.90;;;;;;5030363;28;19979;-71
2022/01/20 09:24:38;;;;;;;;;;;4.80;99.90;;;;;;5031099;28;19909;-71
2022/01/20 09:27:04;;;;;;;;;;;4.80;99.90;;;;;;5031528;28;19909;-72
2022/01/20 09:29:30;;;;;;;;;;;4.90;99.90;;;;;;5033277;28;19917;-70
2022/01/20 09:31:55;;;;;;;;;;;4.90;99.90;;;;;;5031178;28;20214;-70
2022/01/20 09:34:21;;;;;;;;;;;4.80;99.90;;;;;;5031280;28;19920;-70
2022/01/20 09:36:46;;;;;;;;;;;4.50;99.90;;;;;;5014960;28;20279;-71
2022/01/20 09:39:12;;;;;;;;;;;4.50;99.90;;;;;;5032927;28;19924;-70
2022/01/20 09:41:38;;;;;;;;;;;4.60;99.90;;;;;;5018150;28;19966;-71
2022/01/20 09:44:05;;;;;;;;;;;4.50;99.90;;;;;;5034717;28;19913;-73
2022/01/20 09:46:31;;;;;;;;;;;4.50;99.90;;;;;;5014513;28;19909;-75
2022/01/20 09:48:56;;;;;;;;;;;4.50;99.90;;;;;;5042512;28;19956;-74
2022/01/20 09:51:22;;;;;;;;;;;4.50;99.90;;;;;;5039463;28;19909;-70
2022/01/20 09:53:48;;;;;;;;;;;4.60;99.90;;;;;;5035046;28;20288;-72
2022/01/20 09:56:14;;;;;;;;;;;4.60;99.90;;;;;;5034675;28;19909;-72
2022/01/20 09:58:39;;;;;;;;;;;4.70;99.90;;;;;;5033338;28;19913;-71
2022/01/20 10:01:05;;;;;;;;;;;4.70;99.90;;;;;;5033021;28;19988;-70
2022/01/20 10:03:31;;;;;;;;;;;4.80;99.90;;;;;;5014728;28;20331;-72
2022/01/20 10:05:58;;;;;;;;;;;4.80;99.90;;;;;;5015643;28;20270;-69
2022/01/20 10:08:25;;;;;;;;;;;4.80;99.90;;;;;;5034493;28;19909;-71
2022/01/20 10:11:07;;;;;;;;;;;4.90;99.90;;;;;;5020563;28;19917;-70
2022/01/20 10:13:34;;;;;;;;;;;4.90;99.90;;;;;;5040058;28;19909;-72
2022/01/20 10:16:06;;;;;;;;;;;5.00;99.90;;;;;;5041514;28;19913;-73
2022/01/20 10:18:33;;;;;;;;;;;5.10;99.90;;;;;;5038293;28;20362;-76
2022/01/20 10:20:58;;;;;;;;;;;5.10;99.90;;;;;;5033926;28;19913;-70
2022/01/20 10:23:28;;;;;;;;;;;5.10;99.90;;;;;;5032051;28;20003;-74
2022/01/20 10:26:02;;;;;;;;;;;5.20;99.90;;;;;;5032932;28;19959;-73
2022/01/20 10:28:28;;;;;;;;;;;5.20;99.90;;;;;;5034475;28;19951;-71
2022/01/20 10:30:55;;;;;;;;;;;5.20;99.90;;;;;;5026464;28;19925;-69
2022/01/20 10:33:21;;;;;;;;;;;4.90;99.90;;;;;;5034256;28;19996;-70
2022/01/20 10:35:46;;;;;;;;;;;4.80;99.90;;;;;;5032785;28;20018;-70
2022/01/20 10:38:16;;;;;;;;;;;4.70;99.90;;;;;;5036769;28;19913;-71
2022/01/20 10:40:49;;;;;;;;;;;4.80;99.90;;;;;;5038418;28;19909;-71
2022/01/20 10:43:19;;;;;;;;;;;4.70;99.90;;;;;;5035462;28;20381;-68
2022/01/20 10:45:44;;;;;;;;;;;4.60;99.90;;;;;;5035325;28;20425;-71
2022/01/20 10:48:16;;;;;;;;;;;4.70;99.90;;;;;;5037690;28;19909;-72
2022/01/20 10:50:42;;;;;;;;;;;4.80;99.90;;;;;;5034149;28;19909;-70
2022/01/20 10:53:17;;;;;;;;;;;5.10;99.90;;;;;;5032148;28;19910;-72
2022/01/20 10:55:43;;;;;;;;;;;5.20;99.90;;;;;;5034419;28;19909;-74
2022/01/20 10:58:16;;;;;;;;;;;5.30;99.90;;;;;;5032381;28;19921;-71
2022/01/20 11:00:44;;;;;;;;;;;5.30;99.90;;;;;;5032209;28;20294;-70
2022/01/20 11:03:10;;;;;;;;;;;5.40;99.90;;;;;;5031602;28;20001;-71
2022/01/20 11:05:35;;;;;;;;;;;5.50;99.70;;;;;;5031435;28;19941;-71
2022/01/20 11:08:01;;;;;;;;;;;5.60;99.10;;;;;;5029721;28;19913;-71
2022/01/20 11:10:26;;;;;;;;;;;5.50;99.70;;;;;;5030392;28;19916;-70
2022/01/20 11:12:52;;;;;;;;;;;5.50;99.90;;;;;;5031381;28;19944;-71
2022/01/20 11:15:18;;;;;;;;;;;5.50;99.80;;;;;;5031948;28;19916;-72
2022/01/20 11:17:49;;;;;;;;;;;5.60;99.60;;;;;;5030175;28;19917;-70
2022/01/20 11:20:18;;;;;;;;;;;5.70;99.60;;;;;;5030225;28;19913;-72
2022/01/20 11:22:49;;;;;;;;;;;5.80;99.20;;;;;;5029421;28;19913;-71
2022/01/20 11:25:18;;;;;;;;;;;5.90;99.90;;;;;;5028796;28;19995;-72
2022/01/20 11:27:43;;;;;;;;;;;5.80;99.60;;;;;;5027734;28;19909;-71
2022/01/20 11:30:12;;;;;;;;;;;5.70;99.10;;;;;;5027640;28;20402;-72
2022/01/20 11:32:38;;;;;;;;;;;5.70;99.90;;;;;;5028185;28;20286;-74
2022/01/20 11:35:07;;;;;;;;;;;5.70;99.90;;;;;;5027978;28;20383;-71
2022/01/20 11:37:53;;;;;;;;;;;5.70;99.40;;;;;;5028035;28;19920;-70
2022/01/20 11:40:20;;;;;;;;;;;5.70;99.90;;;;;;5027421;28;19913;-71
2022/01/20 11:43:15;;;;;;;;;;;5.40;99.90;;;;;;5011220;28;19909;-69
2022/01/20 11:45:50;;;;;;;;;;;5.20;99.90;;;;;;5015651;28;19909;-76
2022/01/20 11:48:17;;;;;;;;;;;4.90;99.90;;;;;;5011961;28;19909;-72
2022/01/20 11:50:43;;;;;;;;;;;4.50;99.90;;;;;;5012993;28;19913;-70
2022/01/20 11:53:11;;;;;;;;;;;4.40;99.90;;;;;;5031636;28;20407;-69
2022/01/20 11:56:02;;;;;;;;;;;4.50;99.90;;;;;;5030300;28;20003;-71
2022/01/20 11:58:28;;;;;;;;;;;4.60;99.90;;;;;;5029249;28;19917;-72
2022/01/20 12:01:04;;;;;;;;;;;4.70;99.90;;;;;;5036901;28;19909;-71
2022/01/20 12:03:30;;;;;;;;;;;4.80;99.90;;;;;;5038880;28;20425;-70
2022/01/20 12:05:57;;;;;;;;;;;4.80;99.90;;;;;;5016854;28;19909;-70
2022/01/20 12:08:22;;;;;;;;;;;4.90;99.90;;;;;;5032903;28;19956;-71
2022/01/20 12:10:58;;;;;;;;;;;5.20;99.90;;;;;;5029202;28;19913;-71
2022/01/20 12:13:24;;;;;;;;;;;5.50;99.90;;;;;;5027200;28;19920;-72
2022/01/20 12:15:51;;;;;;;;;;;5.50;99.90;;;;;;5028300;28;19909;-69
2022/01/20 12:18:16;;;;;;;;;;;5.60;99.90;;;;;;5028132;28;19913;-72
2022/01/20 12:20:42;;;;;;;;;;;5.80;99.90;;;;;;5026552;28;20368;-70
2022/01/20 12:23:08;;;;;;;;;;;5.90;99.90;;;;;;5026914;28;19909;-72
2022/01/20 12:25:34;;;;;;;;;;;6.10;99.90;;;;;;5027678;28;19909;-74
2022/01/20 12:28:07;;;;;;;;;;;5.90;99.90;;;;;;5026091;28;19917;-71
2022/01/20 12:30:33;;;;;;;;;;;5.70;99.90;;;;;;5026409;28;19923;-71
2022/01/20 12:33:07;;;;;;;;;;;5.70;99.90;;;;;;5026979;28;19917;-70
2022/01/20 12:35:34;;;;;;;;;;;5.60;99.90;;;;;;5008084;28;19909;-70
2022/01/20 12:38:00;;;;;;;;;;;5.50;99.90;;;;;;5025970;28;19928;-71
2022/01/20 12:40:25;;;;;;;;;;;5.50;99.90;;;;;;5026136;28;19914;-71
2022/01/20 12:42:51;;;;;;;;;;;5.50;99.90;;;;;;5027826;28;19952;-69
2022/01/20 12:46:03;;;;;;;;;;;5.50;99.90;;;;;;5015559;28;20019;-70
2022/01/20 12:48:11;;;;;;;;;;;5.60;99.90;;;;;;5029557;28;19920;-70
2022/01/20 12:50:36;;;;;;;;;;;5.60;99.90;;;;;;5026529;28;19951;-70
2022/01/20 12:53:02;;;;;;;;;;;5.50;99.90;;;;;;5025776;28;19936;-70
2022/01/20 12:55:27;;;;;;;;;;;5.70;99.90;;;;;;5026614;28;19913;-71
2022/01/20 12:57:59;;;;;;;;;;;5.90;99.90;;;;;;5026946;28;20330;-71
2022/01/20 13:00:25;;;;;;;;;;;6.00;99.90;;;;;;5029195;28;19970;-70
2022/01/20 13:02:50;;;;;;;;;;;6.10;99.90;;;;;;5027907;28;19992;-71
2022/01/20 13:05:18;;;;;;;;;;;6.30;99.90;;;;;;5028594;28;19909;-72
2022/01/20 13:07:50;;;;;;;;;;;6.30;99.00;;;;;;5011828;28;19915;-72
2022/01/20 13:10:22;;;;;;;;;;;6.30;99.40;;;;;;5028671;28;19909;-71
2022/01/20 13:12:48;;;;;;;;;;;6.40;99.10;;;;;;5009995;28;19928;-73
2022/01/20 13:15:17;;;;;;;;;;;6.50;99.20;;;;;;5029475;28;19909;-74
2022/01/20 13:17:44;;;;;;;;;;;6.50;98.50;;;;;;5030595;28;19914;-71
2022/01/20 13:20:15;;;;;;;;;;;6.50;99.40;;;;;;5028004;28;19944;-71
2022/01/20 13:22:56;;;;;;;;;;;6.40;98.70;;;;;;5030909;28;19956;-70
2022/01/20 13:25:25;;;;;;;;;;;6.30;99.10;;;;;;5042449;28;19909;-72
2022/01/20 13:27:51;;;;;;;;;;;6.10;98.70;;;;;;5017266;28;19913;-72
2022/01/20 13:30:28;;;;;;;;;;;6.00;98.60;;;;;;5018063;28;20354;-70
2022/01/20 13:32:53;;;;;;;;;;;6.00;99.00;;;;;;5028860;28;20287;-72
2022/01/20 13:35:19;;;;;;;;;;;5.90;99.40;;;;;;5031146;28;19913;-68
2022/01/20 13:37:47;;;;;;;;;;;5.80;99.90;;;;;;5035775;28;20468;-70
2022/01/20 13:40:19;;;;;;;;;;;5.80;99.90;;;;;;5039959;28;19940;-70
2022/01/20 13:45:00;;;;;;;;;;;5.80;99.40;;;;;;5039776;28;19917;-71
2022/01/20 13:45:36;;;;;;;;;;;5.70;98.90;;;;;;5042058;28;19975;-72
2022/01/20 13:48:02;;;;;;;;;;;5.60;99.20;;;;;;5041440;28;19980;-69
2022/01/20 13:50:27;;;;;;;;;;;5.70;99.60;;;;;;5037073;28;19963;-70
2022/01/20 13:52:53;;;;;;;;;;;5.70;99.70;;;;;;5034352;28;19909;-71
2022/01/20 13:55:19;;;;;;;;;;;5.70;99.90;;;;;;5030619;28;19920;-71
2022/01/20 13:57:44;;;;;;;;;;;5.80;99.90;;;;;;5030077;28;20329;-71
2022/01/20 14:00:12;;;;;;;;;;;5.80;99.90;;;;;;5030367;28;19988;-73
2022/01/20 14:02:38;;;;;;;;;;;5.60;99.90;;;;;;5030317;28;19956;-73
2022/01/20 14:05:03;;;;;;;;;;;5.30;99.90;;;;;;5028625;28;19956;-71
2022/01/20 14:07:29;;;;;;;;;;;4.60;99.90;;;;;;5030646;28;19924;-70
2022/01/20 14:09:55;;;;;;;;;;;4.50;99.90;;;;;;5033598;28;20053;-72
2022/01/20 14:12:21;;;;;;;;;;;4.50;99.90;;;;;;5033258;28;19948;-69
2022/01/20 14:14:46;;;;;;;;;;;4.40;99.90;;;;;;5032497;28;19916;-69
2022/01/20 14:17:16;;;;;;;;;;;4.50;99.90;;;;;;5027888;28;19917;-71
2022/01/20 14:19:44;;;;;;;;;;;4.70;99.90;;;;;;5029268;28;19921;-72
2022/01/20 14:22:10;;;;;;;;;;;4.80;99.90;;;;;;5029071;28;19910;-70
2022/01/20 14:24:36;;;;;;;;;;;4.90;99.90;;;;;;5027580;28;20224;-70
2022/01/20 14:27:10;;;;;;;;;;;5.00;99.90;;;;;;5029652;28;19928;-72
2022/01/20 14:29:36;;;;;;;;;;;5.10;99.90;;;;;;5028643;28;19931;-70
2022/01/20 14:32:02;;;;;;;;;;;5.20;99.90;;;;;;5028495;28;19920;-73
2022/01/20 14:34:27;;;;;;;;;;;5.20;99.90;;;;;;5032273;28;20053;-71
2022/01/20 14:36:53;;;;;;;;;;;5.30;99.90;;;;;;5031436;28;19929;-70
2022/01/20 14:39:18;;;;;;;;;;;5.30;99.90;;;;;;5031137;28;19913;-69
2022/01/20 14:41:44;;;;;;;;;;;5.40;99.90;;;;;;5032086;28;19963;-73
2022/01/20 14:44:09;;;;;;;;;;;5.40;99.90;;;;;;5030805;28;20018;-71
2022/01/20 14:46:35;;;;;;;;;;;5.40;99.90;;;;;;5030187;28;19915;-70
2022/01/20 14:49:00;;;;;;;;;;;5.40;99.90;;;;;;5030492;28;19963;-71
2022/01/20 14:51:26;;;;;;;;;;;5.40;99.90;;;;;;5031259;28;19909;-71
2022/01/20 14:53:51;;;;;;;;;;;5.40;99.90;;;;;;5020183;28;19909;-70
2022/01/20 14:56:18;;;;;;;;;;;5.50;99.90;;;;;;5035535;28;19909;-71
2022/01/20 14:58:43;;;;;;;;;;;5.40;99.90;;;;;;5033873;28;19913;-72
2022/01/20 15:01:09;;;;;;;;;;;5.50;99.90;;;;;;5032610;28;19924;-70
2022/01/20 15:03:34;;;;;;;;;;;5.50;99.90;;;;;;5015740;28;19909;-71
2022/01/20 15:06:00;;;;;;;;;;;5.60;99.90;;;;;;5030038;28;19913;-73
2022/01/20 15:08:26;;;;;;;;;;;5.70;99.90;;;;;;5030982;28;19909;-73
2022/01/20 15:10:52;;;;;;;;;;;5.80;99.90;;;;;;5029234;28;19911;-73
2022/01/20 15:13:17;;;;;;;;;;;5.80;99.90;;;;;;5029647;28;19999;-74
2022/01/20 15:15:43;;;;;;;;;;;5.90;99.90;;;;;;5030344;28;20436;-72
2022/01/20 15:18:08;;;;;;;;;;;4.70;99.90;;;;;;5030399;28;19917;-74
2022/01/20 15:20:34;;;;;;;;;;;3.90;99.90;;;;;;5035334;28;19924;-72
2022/01/20 15:23:00;;;;;;;;;;;3.40;99.90;;;;;;5045085;28;19913;-72
2022/01/20 15:25:26;;;;;;;;;;;3.50;99.90;;;;;;5035982;28;20122;-72
2022/01/20 15:27:52;;;;;;;;;;;3.40;99.90;;;;;;5034463;28;19920;-73
2022/01/20 15:30:18;;;;;;;;;;;3.50;99.90;;;;;;5024355;28;20013;-73
2022/01/20 15:32:44;;;;;;;;;;;3.50;99.90;;;;;;5034477;28;20002;-72